sensor_id;sensor_type;location;lat;lon;timestamp;temperature;humidity
30134;DHT22;16946;49.984;10.672;2024-03-17T00:00:25;4.50;99.90
30134;DHT22;16946;49.984;10.672;2024-03-17T00:00:59;4.60;99.90
30134;DHT22;16946;49.984;10.672;2024-03-17T00:01:30;4.60;99.90
30134;DHT22;16946;49.984;10.672;2024-03-17T00:02:00;4.70;99.90
30134;DHT22;16946;49.984;10.672;2024-03-17T00:02:31;4.70;99.90
30134;DHT22;16946;49.984;10.672;2024-03-17T00:03:02;4.70;99.90
30134;DHT22;16946;49.984;10.672;2024-03-17T00:03:32;4.70;99.90
30134;DHT22;16946;49.984;10.672;2024-03-17T00:04:03;4.70;99.90
30134;DHT22;16946;49.984;10.672;2024-03-17T00:04:33;4.70;99.90
30134;DHT22;16946;49.984;10.672;2024-03-17T00:05:04;4.70;99.90
30134;DHT22;16946;49.984;10.672;2024-03-17T00:05:36;4.70;99.90
30134;DHT22;16946;49.984;10.672;2024-03-17T00:06:06;4.70;99.90
30134;DHT22;16946;49.984;10.672;2024-03-17T00:06:38;4.60;99.90
30134;DHT22;16946;49.984;10.672;2024-03-17T00:07:09;4.50;99.90
30134;DHT22;16946;49.984;10.672;2024-03-17T00:07:39;4.40;99.90
30134;DHT22;16946;49.984;10.672;2024-03-17T00:08:10;4.30;99.90
30134;DHT22;16946;49.984;10.672;2024-03-17T00:08:41;4.20;99.90
30134;DHT22;16946;49.984;10.672;2024-03-17T00:09:11;4.10;99.90
30134;DHT22;16946;49.984;10.672;2024-03-17T00:09:41;4.10;99.90
30134;DHT22;16946;49.984;10.672;2024-03-17T00:10:12;4.00;99.90
30134;DHT22;16946;49.984;10.672;2024-03-17T00:10:42;4.00;99.90
30134;DHT22;16946;49.984;10.672;2024-03-17T00:11:13;4.00;99.90
30134;DHT22;16946;49.984;10.672;2024-03-17T00:11:44;4.00;99.90
30134;DHT22;16946;49.984;10.672;2024-03-17T00:12:15;4.00;99.90
30134;DHT22;16946;49.984;10.672;2024-03-17T00:12:46;4.00;99.90
30134;DHT22;16946;49.984;10.672;2024-03-17T00:13:17;4.00;99.90
30134;DHT22;16946;49.984;10.672;2024-03-17T00:13:48;4.00;99.90
30134;DHT22;16946;49.984;10.672;2024-03-17T00:14:18;4.00;99.90
30134;DHT22;16946;49.984;10.672;2024-03-17T00:14:49;4.00;99.90
30134;DHT22;16946;49.984;10.672;2024-03-17T00:15:19;4.10;99.90
30134;DHT22;16946;49.984;10.672;2024-03-17T00:15:50;4.10;99.90
30134;DHT22;16946;49.984;10.672;2024-03-17T00:16:21;4.20;99.90
30134;DHT22;16946;49.984;10.672;2024-03-17T00:16:51;4.20;99.90
30134;DHT22;16946;49.984;10.672;2024-03-17T00:17:22;4.20;99.90
30134;DHT22;16946;49.984;10.672;2024-03-17T00:17:53;4.20;99.90
30134;DHT22;16946;49.984;10.672;2024-03-17T00:18:23;4.20;99.90
30134;DHT22;16946;49.984;10.672;2024-03-17T00:18:56;4.10;99.90
30134;DHT22;16946;49.984;10.672;2024-03-17T00:19:27;4.10;99.90
30134;DHT22;16946;49.984;10.672;2024-03-17T00:19:59;4.00;99.90
30134;DHT22;16946;49.984;10.672;2024-03-17T00:20:32;3.90;99.90
30134;DHT22;16946;49.984;10.672;2024-03-17T00:21:04;3.80;99.90
30134;DHT22;16946;49.984;10.672;2024-03-17T00:21:34;3.80;99.90
30134;DHT22;16946;49.984;10.672;2024-03-17T00:22:05;3.80;99.90
30134;DHT22;16946;49.984;10.672;2024-03-17T00:22:36;3.70;99.90
30134;DHT22;16946;49.984;10.672;2024-03-17T00:23:11;3.60;99.90
30134;DHT22;16946;49.984;10.672;2024-03-17T00:23:42;3.60;99.90
30134;DHT22;16946;49.984;10.672;2024-03-17T00:24:12;3.60;99.90
30134;DHT22;16946;49.984;10.672;2024-03-17T00:24:44;3.60;99.90
30134;DHT22;16946;49.984;10.672;2024-03-17T00:25:15;3.60;99.90
30134;DHT22;16946;49.984;10.672;2024-03-17T00:25:46;3.60;99.90
30134;DHT22;16946;49.984;10.672;2024-03-17T00:26:16;3.70;99.90
30134;DHT22;16946;49.984;10.672;2024-03-17T00:26:47;3.80;99.90
30134;DHT22;16946;49.984;10.672;2024-03-17T00:27:18;3.80;99.90
30134;DHT22;16946;49.984;10.672;2024-03-17T00:27:48;3.80;99.90
30134;DHT22;16946;49.984;10.672;2024-03-17T00:28:20;3.90;99.90
30134;DHT22;16946;49.984;10.672;2024-03-17T00:28:51;3.90;99.90
30134;DHT22;16946;49.984;10.672;2024-03-17T00:29:22;4.00;99.90
30134;DHT22;16946;49.984;10.672;2024-03-17T00:29:53;4.00;99.90
30134;DHT22;16946;49.984;10.672;2024-03-17T00:30:23;4.10;99.90
30134;DHT22;16946;49.984;10.672;2024-03-17T00:30:54;4.10;99.90
30134;DHT22;16946;49.984;10.672;2024-03-17T00:31:24;4.10;99.90
30134;DHT22;16946;49.984;10.672;2024-03-17T00:31:55;4.10;99.90
30134;DHT22;16946;49.984;10.672;2024-03-17T00:32:25;4.10;99.90
30134;DHT22;16946;49.984;10.672;2024-03-17T00:32:56;4.00;99.90
30134;DHT22;16946;49.984;10.672;2024-03-17T00:33:28;4.00;99.90
30134;DHT22;16946;49.984;10.672;2024-03-17T00:33:59;3.90;99.90
30134;DHT22;16946;49.984;10.672;2024-03-17T00:34:29;3.90;99.90
30134;DHT22;16946;49.984;10.672;2024-03-17T00:35:00;3.80;99.90
30134;DHT22;16946;49.984;10.672;2024-03-17T00:35:31;3.80;99.90
30134;DHT22;16946;49.984;10.672;2024-03-17T00:36:02;3.90;99.90
30134;DHT22;16946;49.984;10.672;2024-03-17T00:36:32;3.90;99.90
30134;DHT22;16946;49.984;10.672;2024-03-17T00:37:03;3.90;99.90
30134;DHT22;16946;49.984;10.672;2024-03-17T00:37:33;3.90;99.90
30134;DHT22;16946;49.984;10.672;2024-03-17T00:38:04;3.90;99.90
30134;DHT22;16946;49.984;10.672;2024-03-17T00:38:40;3.90;99.90
30134;DHT22;16946;49.984;10.672;2024-03-17T00:39:11;3.90;99.90
30134;DHT22;16946;49.984;10.672;2024-03-17T00:39:41;3.90;99.90
30134;DHT22;16946;49.984;10.672;2024-03-17T00:40:12;3.90;99.90
30134;DHT22;16946;49.984;10.672;2024-03-17T00:40:42;3.90;99.90
30134;DHT22;16946;49.984;10.672;2024-03-17T00:41:15;3.90;99.90
30134;DHT22;16946;49.984;10.672;2024-03-17T00:41:46;3.90;99.90
30134;DHT22;16946;49.984;10.672;2024-03-17T00:42:16;3.90;99.90
30134;DHT22;16946;49.984;10.672;2024-03-17T00:42:47;3.80;99.90
30134;DHT22;16946;49.984;10.672;2024-03-17T00:43:17;3.80;99.90
30134;DHT22;16946;49.984;10.672;2024-03-17T00:43:48;3.80;99.90
30134;DHT22;16946;49.984;10.672;2024-03-17T00:44:18;3.80;99.90
30134;DHT22;16946;49.984;10.672;2024-03-17T00:44:49;3.70;99.90
30134;DHT22;16946;49.984;10.672;2024-03-17T00:45:19;3.80;99.90
30134;DHT22;16946;49.984;10.672;2024-03-17T00:45:53;3.80;99.90
30134;DHT22;16946;49.984;10.672;2024-03-17T00:46:24;3.80;99.90
30134;DHT22;16946;49.984;10.672;2024-03-17T00:46:54;3.80;99.90
30134;DHT22;16946;49.984;10.672;2024-03-17T00:47:25;3.90;99.90
30134;DHT22;16946;49.984;10.672;2024-03-17T00:47:55;4.00;99.90
30134;DHT22;16946;49.984;10.672;2024-03-17T00:48:26;4.00;99.90
30134;DHT22;16946;49.984;10.672;2024-03-17T00:48:56;4.00;99.90
30134;DHT22;16946;49.984;10.672;2024-03-17T00:49:27;4.00;99.90
30134;DHT22;16946;49.984;10.672;2024-03-17T00:49:57;4.00;99.90
30134;DHT22;16946;49.984;10.672;2024-03-17T00:50:28;4.00;99.90
30134;DHT22;16946;49.984;10.672;2024-03-17T00:50:58;4.00;99.90
30134;DHT22;16946;49.984;10.672;2024-03-17T00:51:29;4.00;99.90
30134;DHT22;16946;49.984;10.672;2024-03-17T00:52:00;4.00;99.90
30134;DHT22;16946;49.984;10.672;2024-03-17T00:52:31;4.00;99.90
30134;DHT22;16946;49.984;10.672;2024-03-17T00:53:01;4.00;99.90
30134;DHT22;16946;49.984;10.672;2024-03-17T00:53:33;3.90;99.90
30134;DHT22;16946;49.984;10.672;2024-03-17T00:54:04;3.80;99.90
30134;DHT22;16946;49.984;10.672;2024-03-17T00:54:34;3.80;99.90
30134;DHT22;16946;49.984;10.672;2024-03-17T00:55:05;3.70;99.90
30134;DHT22;16946;49.984;10.672;2024-03-17T00:55:36;3.70;99.90
30134;DHT22;16946;49.984;10.672;2024-03-17T00:56:07;3.60;99.90
30134;DHT22;16946;49.984;10.672;2024-03-17T00:56:37;3.60;99.90
30134;DHT22;16946;49.984;10.672;2024-03-17T00:57:08;3.60;99.90
30134;DHT22;16946;49.984;10.672;2024-03-17T00:57:38;3.50;99.90
30134;DHT22;16946;49.984;10.672;2024-03-17T00:58:09;3.50;99.90
30134;DHT22;16946;49.984;10.672;2024-03-17T00:58:39;3.50;99.90
30134;DHT22;16946;49.984;10.672;2024-03-17T00:59:10;3.50;99.90
30134;DHT22;16946;49.984;10.672;2024-03-17T00:59:40;3.50;99.90
30134;DHT22;16946;49.984;10.672;2024-03-17T01:00:11;3.50;99.90
30134;DHT22;16946;49.984;10.672;2024-03-17T01:00:42;3.50;99.90
30134;DHT22;16946;49.984;10.672;2024-03-17T01:01:12;3.60;99.90
30134;DHT22;16946;49.984;10.672;2024-03-17T01:01:43;3.60;99.90
30134;DHT22;16946;49.984;10.672;2024-03-17T01:02:15;3.60;99.90
30134;DHT22;16946;49.984;10.672;2024-03-17T01:02:48;3.70;99.90
30134;DHT22;16946;49.984;10.672;2024-03-17T01:03:19;3.70;99.90
30134;DHT22;16946;49.984;10.672;2024-03-17T01:03:49;3.70;99.90
30134;DHT22;16946;49.984;10.672;2024-03-17T01:04:20;3.70;99.90
30134;DHT22;16946;49.984;10.672;2024-03-17T01:04:50;3.70;99.90
30134;DHT22;16946;49.984;10.672;2024-03-17T01:05:21;3.80;99.90
30134;DHT22;16946;49.984;10.672;2024-03-17T01:05:51;3.80;99.90
30134;DHT22;16946;49.984;10.672;2024-03-17T01:06:23;3.80;99.90
30134;DHT22;16946;49.984;10.672;2024-03-17T01:06:53;3.90;99.90
30134;DHT22;16946;49.984;10.672;2024-03-17T01:07:24;3.90;99.90
30134;DHT22;16946;49.984;10.672;2024-03-17T01:07:54;3.90;99.90
30134;DHT22;16946;49.984;10.672;2024-03-17T01:08:25;3.90;99.90
30134;DHT22;16946;49.984;10.672;2024-03-17T01:08:55;3.90;99.90
30134;DHT22;16946;49.984;10.672;2024-03-17T01:09:26;3.90;99.90
30134;DHT22;16946;49.984;10.672;2024-03-17T01:09:56;3.90;99.90
30134;DHT22;16946;49.984;10.672;2024-03-17T01:10:27;3.90;99.90
30134;DHT22;16946;49.984;10.672;2024-03-17T01:10:57;3.90;99.90
30134;DHT22;16946;49.984;10.672;2024-03-17T01:11:28;3.90;99.90
30134;DHT22;16946;49.984;10.672;2024-03-17T01:11:59;4.00;99.90
30134;DHT22;16946;49.984;10.672;2024-03-17T01:12:30;4.00;99.90
30134;DHT22;16946;49.984;10.672;2024-03-17T01:13:00;4.00;99.90
30134;DHT22;16946;49.984;10.672;2024-03-17T01:13:31;4.00;99.90
30134;DHT22;16946;49.984;10.672;2024-03-17T01:14:04;4.00;99.90
30134;DHT22;16946;49.984;10.672;2024-03-17T01:14:35;3.90;99.90
30134;DHT22;16946;49.984;10.672;2024-03-17T01:15:06;3.90;99.90
30134;DHT22;16946;49.984;10.672;2024-03-17T01:15:37;3.90;99.90
30134;DHT22;16946;49.984;10.672;2024-03-17T01:16:08;4.00;99.90
30134;DHT22;16946;49.984;10.672;2024-03-17T01:16:38;4.00;99.90
30134;DHT22;16946;49.984;10.672;2024-03-17T01:17:09;4.00;99.90
30134;DHT22;16946;49.984;10.672;2024-03-17T01:17:39;4.00;99.90
30134;DHT22;16946;49.984;10.672;2024-03-17T01:18:11;4.10;99.90
30134;DHT22;16946;49.984;10.672;2024-03-17T01:18:42;4.10;99.90
30134;DHT22;16946;49.984;10.672;2024-03-17T01:19:13;4.00;99.90
30134;DHT22;16946;49.984;10.672;2024-03-17T01:19:44;4.10;99.90
30134;DHT22;16946;49.984;10.672;2024-03-17T01:20:14;4.10;99.90
30134;DHT22;16946;49.984;10.672;2024-03-17T01:20:45;4.10;99.90
30134;DHT22;16946;49.984;10.672;2024-03-17T01:21:16;4.10;99.90
30134;DHT22;16946;49.984;10.672;2024-03-17T01:21:47;4.10;99.90
30134;DHT22;16946;49.984;10.672;2024-03-17T01:22:18;4.10;99.90
30134;DHT22;16946;49.984;10.672;2024-03-17T01:22:48;4.20;99.90
30134;DHT22;16946;49.984;10.672;2024-03-17T01:23:18;4.20;99.90
30134;DHT22;16946;49.984;10.672;2024-03-17T01:23:49;4.20;99.90
30134;DHT22;16946;49.984;10.672;2024-03-17T01:24:20;4.10;99.90
30134;DHT22;16946;49.984;10.672;2024-03-17T01:24:50;4.20;99.90
30134;DHT22;16946;49.984;10.672;2024-03-17T01:25:21;4.10;99.90
30134;DHT22;16946;49.984;10.672;2024-03-17T01:25:51;4.10;99.90
30134;DHT22;16946;49.984;10.672;2024-03-17T01:26:22;4.10;99.90
30134;DHT22;16946;49.984;10.672;2024-03-17T01:26:54;4.10;99.90
30134;DHT22;16946;49.984;10.672;2024-03-17T01:27:24;4.00;99.90
30134;DHT22;16946;49.984;10.672;2024-03-17T01:27:55;4.00;99.90
30134;DHT22;16946;49.984;10.672;2024-03-17T01:28:26;4.00;99.90
30134;DHT22;16946;49.984;10.672;2024-03-17T01:28:57;4.00;99.90
30134;DHT22;16946;49.984;10.672;2024-03-17T01:29:27;4.00;99.90
30134;DHT22;16946;49.984;10.672;2024-03-17T01:29:58;3.90;99.90
30134;DHT22;16946;49.984;10.672;2024-03-17T01:30:28;3.90;99.90
30134;DHT22;16946;49.984;10.672;2024-03-17T01:30:59;3.90;99.90
30134;DHT22;16946;49.984;10.672;2024-03-17T01:31:30;3.80;99.90
30134;DHT22;16946;49.984;10.672;2024-03-17T01:32:00;3.90;99.90
30134;DHT22;16946;49.984;10.672;2024-03-17T01:32:31;3.80;99.90
30134;DHT22;16946;49.984;10.672;2024-03-17T01:33:01;3.80;99.90
30134;DHT22;16946;49.984;10.672;2024-03-17T01:33:32;3.80;99.90
30134;DHT22;16946;49.984;10.672;2024-03-17T01:34:03;3.80;99.90
30134;DHT22;16946;49.984;10.672;2024-03-17T01:34:33;3.80;99.90
30134;DHT22;16946;49.984;10.672;2024-03-17T01:35:05;3.80;99.90
30134;DHT22;16946;49.984;10.672;2024-03-17T01:35:36;3.80;99.90
30134;DHT22;16946;49.984;10.672;2024-03-17T01:36:07;3.70;99.90
30134;DHT22;16946;49.984;10.672;2024-03-17T01:36:37;3.70;99.90
30134;DHT22;16946;49.984;10.672;2024-03-17T01:37:08;3.60;99.90
30134;DHT22;16946;49.984;10.672;2024-03-17T01:37:39;3.50;99.90
30134;DHT22;16946;49.984;10.672;2024-03-17T01:38:09;3.50;99.90
30134;DHT22;16946;49.984;10.672;2024-03-17T01:38:43;3.40;99.90
30134;DHT22;16946;49.984;10.672;2024-03-17T01:39:14;3.30;99.90
30134;DHT22;16946;49.984;10.672;2024-03-17T01:39:45;3.20;99.90
30134;DHT22;16946;49.984;10.672;2024-03-17T01:40:16;3.20;99.90
30134;DHT22;16946;49.984;10.672;2024-03-17T01:40:46;3.10;99.90
30134;DHT22;16946;49.984;10.672;2024-03-17T01:41:17;3.10;99.90
30134;DHT22;16946;49.984;10.672;2024-03-17T01:41:48;3.10;99.90
30134;DHT22;16946;49.984;10.672;2024-03-17T01:42:18;3.00;99.90
30134;DHT22;16946;49.984;10.672;2024-03-17T01:42:49;3.00;99.90
30134;DHT22;16946;49.984;10.672;2024-03-17T01:43:19;3.00;99.90
30134;DHT22;16946;49.984;10.672;2024-03-17T01:43:50;3.00;99.90
30134;DHT22;16946;49.984;10.672;2024-03-17T01:44:26;3.00;99.90
30134;DHT22;16946;49.984;10.672;2024-03-17T01:44:56;3.00;99.90
30134;DHT22;16946;49.984;10.672;2024-03-17T01:45:32;3.00;99.90
30134;DHT22;16946;49.984;10.672;2024-03-17T01:46:03;3.00;99.90
30134;DHT22;16946;49.984;10.672;2024-03-17T01:46:34;3.00;99.90
30134;DHT22;16946;49.984;10.672;2024-03-17T01:47:04;3.00;99.90
30134;DHT22;16946;49.984;10.672;2024-03-17T01:47:35;3.00;99.90
30134;DHT22;16946;49.984;10.672;2024-03-17T01:48:13;3.00;99.90
30134;DHT22;16946;49.984;10.672;2024-03-17T01:48:49;3.10;99.90
30134;DHT22;16946;49.984;10.672;2024-03-17T01:49:21;3.10;99.90
30134;DHT22;16946;49.984;10.672;2024-03-17T01:49:52;3.20;99.90
30134;DHT22;16946;49.984;10.672;2024-03-17T01:50:24;3.20;99.90
30134;DHT22;16946;49.984;10.672;2024-03-17T01:50:56;3.30;99.90
30134;DHT22;16946;49.984;10.672;2024-03-17T01:51:28;3.30;99.90
30134;DHT22;16946;49.984;10.672;2024-03-17T01:51:58;3.20;99.90
30134;DHT22;16946;49.984;10.672;2024-03-17T01:52:29;3.20;99.90
30134;DHT22;16946;49.984;10.672;2024-03-17T01:53:07;3.10;99.90
30134;DHT22;16946;49.984;10.672;2024-03-17T01:53:39;3.10;99.90
30134;DHT22;16946;49.984;10.672;2024-03-17T01:54:11;3.00;99.90
30134;DHT22;16946;49.984;10.672;2024-03-17T01:54:42;3.00;99.90
30134;DHT22;16946;49.984;10.672;2024-03-17T01:55:13;2.90;99.90
30134;DHT22;16946;49.984;10.672;2024-03-17T01:55:46;2.80;99.90
30134;DHT22;16946;49.984;10.672;2024-03-17T01:56:17;2.80;99.90
30134;DHT22;16946;49.984;10.672;2024-03-17T01:56:48;2.80;99.90
30134;DHT22;16946;49.984;10.672;2024-03-17T01:57:19;2.80;99.90
30134;DHT22;16946;49.984;10.672;2024-03-17T01:57:50;2.70;99.90
30134;DHT22;16946;49.984;10.672;2024-03-17T01:58:24;2.80;99.90
30134;DHT22;16946;49.984;10.672;2024-03-17T01:58:55;2.80;99.90
30134;DHT22;16946;49.984;10.672;2024-03-17T01:59:26;2.90;99.90
30134;DHT22;16946;49.984;10.672;2024-03-17T01:59:58;2.90;99.90
30134;DHT22;16946;49.984;10.672;2024-03-17T02:00:28;2.90;99.90
30134;DHT22;16946;49.984;10.672;2024-03-17T02:01:01;3.00;99.90
30134;DHT22;16946;49.984;10.672;2024-03-17T02:01:32;3.10;99.90
30134;DHT22;16946;49.984;10.672;2024-03-17T02:02:02;3.10;99.90
30134;DHT22;16946;49.984;10.672;2024-03-17T02:02:36;3.20;99.90
30134;DHT22;16946;49.984;10.672;2024-03-17T02:03:07;3.20;99.90
30134;DHT22;16946;49.984;10.672;2024-03-17T02:03:39;3.30;99.90
30134;DHT22;16946;49.984;10.672;2024-03-17T02:04:09;3.30;99.90
30134;DHT22;16946;49.984;10.672;2024-03-17T02:04:40;3.40;99.90
30134;DHT22;16946;49.984;10.672;2024-03-17T02:05:10;3.40;99.90
30134;DHT22;16946;49.984;10.672;2024-03-17T02:05:41;3.40;99.90
30134;DHT22;16946;49.984;10.672;2024-03-17T02:06:11;3.40;99.90
30134;DHT22;16946;49.984;10.672;2024-03-17T02:06:42;3.40;99.90
30134;DHT22;16946;49.984;10.672;2024-03-17T02:07:13;3.40;99.90
30134;DHT22;16946;49.984;10.672;2024-03-17T02:07:45;3.20;99.90
30134;DHT22;16946;49.984;10.672;2024-03-17T02:08:16;3.20;99.90
30134;DHT22;16946;49.984;10.672;2024-03-17T02:08:50;3.10;99.90
30134;DHT22;16946;49.984;10.672;2024-03-17T02:09:21;3.10;99.90
30134;DHT22;16946;49.984;10.672;2024-03-17T02:09:52;3.10;99.90
30134;DHT22;16946;49.984;10.672;2024-03-17T02:10:23;3.10;99.90
30134;DHT22;16946;49.984;10.672;2024-03-17T02:10:54;3.20;99.90
30134;DHT22;16946;49.984;10.672;2024-03-17T02:11:32;3.20;99.90
30134;DHT22;16946;49.984;10.672;2024-03-17T02:12:02;3.20;99.90
30134;DHT22;16946;49.984;10.672;2024-03-17T02:12:33;3.20;99.90
30134;DHT22;16946;49.984;10.672;2024-03-17T02:13:04;3.20;99.90
30134;DHT22;16946;49.984;10.672;2024-03-17T02:13:35;3.30;99.90
30134;DHT22;16946;49.984;10.672;2024-03-17T02:14:06;3.30;99.90
30134;DHT22;16946;49.984;10.672;2024-03-17T02:14:38;3.30;99.90
30134;DHT22;16946;49.984;10.672;2024-03-17T02:15:09;3.30;99.90
30134;DHT22;16946;49.984;10.672;2024-03-17T02:15:39;3.40;99.90
30134;DHT22;16946;49.984;10.672;2024-03-17T02:16:10;3.30;99.90
30134;DHT22;16946;49.984;10.672;2024-03-17T02:16:41;3.30;99.90
30134;DHT22;16946;49.984;10.672;2024-03-17T02:17:11;3.30;99.90
30134;DHT22;16946;49.984;10.672;2024-03-17T02:17:42;3.20;99.90
30134;DHT22;16946;49.984;10.672;2024-03-17T02:18:12;3.20;99.90
30134;DHT22;16946;49.984;10.672;2024-03-17T02:18:44;3.10;99.90
30134;DHT22;16946;49.984;10.672;2024-03-17T02:19:15;3.00;99.90
30134;DHT22;16946;49.984;10.672;2024-03-17T02:19:45;2.90;99.90
30134;DHT22;16946;49.984;10.672;2024-03-17T02:20:16;2.80;99.90
30134;DHT22;16946;49.984;10.672;2024-03-17T02:20:48;2.80;99.90
30134;DHT22;16946;49.984;10.672;2024-03-17T02:21:29;2.70;99.90
30134;DHT22;16946;49.984;10.672;2024-03-17T02:22:00;2.70;99.90
30134;DHT22;16946;49.984;10.672;2024-03-17T02:22:31;2.70;99.90
30134;DHT22;16946;49.984;10.672;2024-03-17T02:23:01;2.70;99.90
30134;DHT22;16946;49.984;10.672;2024-03-17T02:23:33;2.70;99.90
30134;DHT22;16946;49.984;10.672;2024-03-17T02:24:04;2.70;99.90
30134;DHT22;16946;49.984;10.672;2024-03-17T02:24:34;2.70;99.90
30134;DHT22;16946;49.984;10.672;2024-03-17T02:25:05;2.70;99.90
30134;DHT22;16946;49.984;10.672;2024-03-17T02:25:39;2.70;99.90
30134;DHT22;16946;49.984;10.672;2024-03-17T02:26:10;2.80;99.90
30134;DHT22;16946;49.984;10.672;2024-03-17T02:26:41;2.80;99.90
30134;DHT22;16946;49.984;10.672;2024-03-17T02:27:12;2.80;99.90
30134;DHT22;16946;49.984;10.672;2024-03-17T02:27:43;2.80;99.90
30134;DHT22;16946;49.984;10.672;2024-03-17T02:28:13;2.80;99.90
30134;DHT22;16946;49.984;10.672;2024-03-17T02:28:45;2.80;99.90
30134;DHT22;16946;49.984;10.672;2024-03-17T02:29:16;2.90;99.90
30134;DHT22;16946;49.984;10.672;2024-03-17T02:29:46;2.90;99.90
30134;DHT22;16946;49.984;10.672;2024-03-17T02:30:17;3.00;99.90
30134;DHT22;16946;49.984;10.672;2024-03-17T02:30:47;3.00;99.90
30134;DHT22;16946;49.984;10.672;2024-03-17T02:31:18;2.90;99.90
30134;DHT22;16946;49.984;10.672;2024-03-17T02:31:48;3.00;99.90
30134;DHT22;16946;49.984;10.672;2024-03-17T02:32:19;3.00;99.90
30134;DHT22;16946;49.984;10.672;2024-03-17T02:32:53;3.00;99.90
30134;DHT22;16946;49.984;10.672;2024-03-17T02:33:23;2.90;99.90
30134;DHT22;16946;49.984;10.672;2024-03-17T02:33:54;2.90;99.90
30134;DHT22;16946;49.984;10.672;2024-03-17T02:34:24;2.90;99.90
30134;DHT22;16946;49.984;10.672;2024-03-17T02:34:55;2.80;99.90
30134;DHT22;16946;49.984;10.672;2024-03-17T02:35:27;2.80;99.90
30134;DHT22;16946;49.984;10.672;2024-03-17T02:35:57;2.70;99.90
30134;DHT22;16946;49.984;10.672;2024-03-17T02:36:28;2.80;99.90
30134;DHT22;16946;49.984;10.672;2024-03-17T02:36:58;2.70;99.90
30134;DHT22;16946;49.984;10.672;2024-03-17T02:37:29;2.60;99.90
30134;DHT22;16946;49.984;10.672;2024-03-17T02:37:59;2.60;99.90
30134;DHT22;16946;49.984;10.672;2024-03-17T02:38:30;2.50;99.90
30134;DHT22;16946;49.984;10.672;2024-03-17T02:39:20;2.50;99.90
30134;DHT22;16946;49.984;10.672;2024-03-17T02:40:06;2.50;99.90
30134;DHT22;16946;49.984;10.672;2024-03-17T02:40:37;2.40;99.90
30134;DHT22;16946;49.984;10.672;2024-03-17T02:41:07;2.40;99.90
30134;DHT22;16946;49.984;10.672;2024-03-17T02:41:43;2.40;99.90
30134;DHT22;16946;49.984;10.672;2024-03-17T02:42:13;2.30;99.90
30134;DHT22;16946;49.984;10.672;2024-03-17T02:42:45;2.30;99.90
30134;DHT22;16946;49.984;10.672;2024-03-17T02:43:15;2.30;99.90
30134;DHT22;16946;49.984;10.672;2024-03-17T02:43:46;2.30;99.90
30134;DHT22;16946;49.984;10.672;2024-03-17T02:44:17;2.20;99.90
30134;DHT22;16946;49.984;10.672;2024-03-17T02:44:47;2.20;99.90
30134;DHT22;16946;49.984;10.672;2024-03-17T02:45:18;2.20;99.90
30134;DHT22;16946;49.984;10.672;2024-03-17T02:45:48;2.10;99.90
30134;DHT22;16946;49.984;10.672;2024-03-17T02:46:19;2.10;99.90
30134;DHT22;16946;49.984;10.672;2024-03-17T02:46:50;2.10;99.90
30134;DHT22;16946;49.984;10.672;2024-03-17T02:47:20;2.10;99.90
30134;DHT22;16946;49.984;10.672;2024-03-17T02:47:51;2.10;99.90
30134;DHT22;16946;49.984;10.672;2024-03-17T02:48:21;2.10;99.90
30134;DHT22;16946;49.984;10.672;2024-03-17T02:48:53;2.10;99.90
30134;DHT22;16946;49.984;10.672;2024-03-17T02:49:25;2.00;99.90
30134;DHT22;16946;49.984;10.672;2024-03-17T02:49:55;2.10;99.90
30134;DHT22;16946;49.984;10.672;2024-03-17T02:50:26;2.00;99.90
30134;DHT22;16946;49.984;10.672;2024-03-17T02:50:56;2.00;99.90
30134;DHT22;16946;49.984;10.672;2024-03-17T02:51:27;2.00;99.90
30134;DHT22;16946;49.984;10.672;2024-03-17T02:51:57;2.00;99.90
30134;DHT22;16946;49.984;10.672;2024-03-17T02:52:30;2.10;99.90
30134;DHT22;16946;49.984;10.672;2024-03-17T02:53:00;2.00;99.90
30134;DHT22;16946;49.984;10.672;2024-03-17T02:53:33;2.00;99.90
30134;DHT22;16946;49.984;10.672;2024-03-17T02:54:03;1.90;99.90
30134;DHT22;16946;49.984;10.672;2024-03-17T02:54:39;1.90;99.90
30134;DHT22;16946;49.984;10.672;2024-03-17T02:55:10;1.90;99.90
30134;DHT22;16946;49.984;10.672;2024-03-17T02:55:40;1.90;99.90
30134;DHT22;16946;49.984;10.672;2024-03-17T02:56:11;1.90;99.90
30134;DHT22;16946;49.984;10.672;2024-03-17T02:56:42;1.90;99.90
30134;DHT22;16946;49.984;10.672;2024-03-17T02:57:13;1.90;99.90
30134;DHT22;16946;49.984;10.672;2024-03-17T02:57:44;1.90;99.90
30134;DHT22;16946;49.984;10.672;2024-03-17T02:58:14;1.90;99.90
30134;DHT22;16946;49.984;10.672;2024-03-17T02:58:46;1.80;99.90
30134;DHT22;16946;49.984;10.672;2024-03-17T02:59:17;1.80;99.90
30134;DHT22;16946;49.984;10.672;2024-03-17T02:59:48;1.80;99.90
30134;DHT22;16946;49.984;10.672;2024-03-17T03:00:18;1.70;99.90
30134;DHT22;16946;49.984;10.672;2024-03-17T03:00:50;1.70;99.90
30134;DHT22;16946;49.984;10.672;2024-03-17T03:01:20;1.70;99.90
30134;DHT22;16946;49.984;10.672;2024-03-17T03:01:51;1.60;99.90
30134;DHT22;16946;49.984;10.672;2024-03-17T03:02:22;1.70;99.90
30134;DHT22;16946;49.984;10.672;2024-03-17T03:02:53;1.70;99.90
30134;DHT22;16946;49.984;10.672;2024-03-17T03:03:24;1.70;99.90
30134;DHT22;16946;49.984;10.672;2024-03-17T03:03:55;1.70;99.90
30134;DHT22;16946;49.984;10.672;2024-03-17T03:04:26;1.80;99.90
30134;DHT22;16946;49.984;10.672;2024-03-17T03:04:56;1.80;99.90
30134;DHT22;16946;49.984;10.672;2024-03-17T03:05:27;1.80;99.90
30134;DHT22;16946;49.984;10.672;2024-03-17T03:05:57;1.80;99.90
30134;DHT22;16946;49.984;10.672;2024-03-17T03:06:28;1.80;99.90
30134;DHT22;16946;49.984;10.672;2024-03-17T03:06:59;1.80;99.90
30134;DHT22;16946;49.984;10.672;2024-03-17T03:07:29;1.70;99.90
30134;DHT22;16946;49.984;10.672;2024-03-17T03:08:00;1.80;99.90
30134;DHT22;16946;49.984;10.672;2024-03-17T03:08:31;1.80;99.90
30134;DHT22;16946;49.984;10.672;2024-03-17T03:09:01;1.80;99.90
30134;DHT22;16946;49.984;10.672;2024-03-17T03:09:32;1.80;99.90
30134;DHT22;16946;49.984;10.672;2024-03-17T03:10:03;1.80;99.90
30134;DHT22;16946;49.984;10.672;2024-03-17T03:10:33;1.80;99.90
30134;DHT22;16946;49.984;10.672;2024-03-17T03:11:07;1.70;99.90
30134;DHT22;16946;49.984;10.672;2024-03-17T03:11:41;1.80;99.90
30134;DHT22;16946;49.984;10.672;2024-03-17T03:12:11;1.80;99.90
30134;DHT22;16946;49.984;10.672;2024-03-17T03:12:42;1.80;99.90
30134;DHT22;16946;49.984;10.672;2024-03-17T03:13:12;1.80;99.90
30134;DHT22;16946;49.984;10.672;2024-03-17T03:13:43;1.80;99.90
30134;DHT22;16946;49.984;10.672;2024-03-17T03:14:14;1.80;99.90
30134;DHT22;16946;49.984;10.672;2024-03-17T03:14:44;1.80;99.90
30134;DHT22;16946;49.984;10.672;2024-03-17T03:15:15;1.70;99.90
30134;DHT22;16946;49.984;10.672;2024-03-17T03:15:48;1.70;99.90
30134;DHT22;16946;49.984;10.672;2024-03-17T03:16:19;1.70;99.90
30134;DHT22;16946;49.984;10.672;2024-03-17T03:16:49;1.70;99.90